Aberdeen, Mississippi
Current Conditions -  °F | °C
As of 8:35 AM on Tuesday 21 Oct 2014 (Local Time) from KM40 Reporting Station
Haze Haze  
Wind Chill: 54°   Ceiling: Unl
Heat Index: 54°   Visibility: 5mi
Dew Point: 43°   Wind: 0mph
Humidity: 67%   Direction: NA
Pressure: 30.1"   Gusts: NA
Location:  33.82°N, 88.54°W
Report Text: KM40 211335Z AUTO 00000KT 5SM HZ CLR 12/06 A3010 RMK AO2
Loading
Personal Weather Stations






























Interactive Weather Map
Tropical Storm Tracking
New forecast layout! Learn more

10-Day Weather Forecast

Advertisements
Track Severe Weather on mobile